Time,TemperatureF,DewpointF,PressureIn,WindDirection,WindDirectionDegrees,WindSpeedMPH,WindSpeedGustMPH,Humidity,HourlyPrecipIn,Conditions,Clouds,dailyrainin,SoftwareType,DateUTC
2013-01-31 06:33:00,69.0,63.0,30.05,North,5,7.0,15.0,81,0.00,,,0.00,,2013-01-31 16:33:00,
2013-01-31 06:42:00,69.0,63.0,30.05,North,5,7.0,15.0,81,0.00,,,0.00,,2013-01-31 16:42:00,
2013-01-31 06:52:00,69.0,63.0,30.06,ENE,69,6.0,15.0,82,0.00,,,0.00,,2013-01-31 16:52:00,
2013-01-31 07:02:00,69.0,63.0,30.06,NNW,338,6.0,12.0,81,0.00,,,0.00,,2013-01-31 17:02:00,
2013-01-31 07:11:00,69.0,63.0,30.06,NNW,338,6.0,12.0,81,0.00,,,0.00,,2013-01-31 17:11:00,
2013-01-31 07:22:00,69.0,63.0,30.06,ENE,72,8.0,17.0,81,0.00,,,0.00,,2013-01-31 17:22:00,
2013-01-31 07:31:00,69.0,63.0,30.07,NNE,25,7.0,15.0,81,0.00,,,0.00,,2013-01-31 17:31:00,
2013-01-31 07:42:00,69.0,63.0,30.07,NNE,25,7.0,15.0,81,0.00,,,0.00,,2013-01-31 17:42:00,
2013-01-31 07:53:00,69.0,63.0,30.07,ENE,65,7.0,14.0,81,0.00,,,0.00,,2013-01-31 17:53:00,
2013-01-31 08:02:00,69.0,63.0,30.08,East,84,8.0,16.0,81,0.00,,,0.00,,2013-01-31 18:02:00,
2013-01-31 08:11:00,70.0,64.0,30.08,North,355,4.0,9.0,81,0.00,,,0.00,,2013-01-31 18:11:00,
2013-01-31 08:21:00,70.0,64.0,30.08,North,355,4.0,9.0,81,0.00,,,0.00,,2013-01-31 18:21:00,
2013-01-31 08:31:00,70.0,64.0,30.09,NE,52,9.0,19.0,80,0.00,,,0.00,,2013-01-31 18:31:00,
2013-01-31 08:42:00,70.0,64.0,30.09,NE,52,9.0,19.0,80,0.00,,,0.00,,2013-01-31 18:42:00,
2013-01-31 08:52:00,70.0,64.0,30.09,North,11,8.0,14.0,80,0.00,,,0.00,,2013-01-31 18:52:00,
2013-01-31 09:01:00,71.0,65.0,30.09,East,84,9.0,18.0,80,0.00,,,0.00,,2013-01-31 19:01:00,
2013-01-31 09:11:00,71.0,65.0,30.09,East,84,9.0,18.0,80,0.00,,,0.00,,2013-01-31 19:11:00,
2013-01-31 09:21:00,71.0,65.0,30.10,NNE,25,10.0,20.0,80,0.00,,,0.00,,2013-01-31 19:21:00,
2013-01-31 09:32:00,72.0,65.0,30.10,NNE,21,6.0,17.0,79,0.00,,,0.00,,2013-01-31 19:32:00,
2013-01-31 09:42:00,72.0,65.0,30.10,NNE,21,6.0,17.0,79,0.00,,,0.00,,2013-01-31 19:42:00,
2013-01-31 09:52:00,72.0,65.0,30.10,North,355,6.0,20.0,78,0.00,,,0.00,,2013-01-31 19:52:00,
2013-01-31 10:01:00,72.0,64.0,30.10,ENE,59,6.0,13.0,76,0.00,,,0.00,,2013-01-31 20:01:00,
2013-01-31 10:11:00,72.0,64.0,30.10,ENE,59,6.0,13.0,76,0.00,,,0.00,,2013-01-31 20:11:00,
2013-01-31 10:21:00,73.0,65.0,30.11,ENE,61,3.0,14.0,75,0.00,,,0.00,,2013-01-31 20:21:00,
2013-01-31 10:31:00,73.0,65.0,30.11,East,93,8.0,22.0,75,0.00,,,0.00,,2013-01-31 20:31:00,
2013-01-31 10:41:00,73.0,65.0,30.10,NE,49,6.0,24.0,77,0.00,,,0.00,,2013-01-31 20:41:00,
2013-01-31 10:52:00,73.0,65.0,30.10,NE,49,6.0,24.0,77,0.00,,,0.00,,2013-01-31 20:52:00,
2013-01-31 11:01:00,73.0,65.0,30.11,ENE,78,10.0,25.0,76,0.00,,,0.00,,2013-01-31 21:01:00,
2013-01-31 11:11:00,73.0,64.0,30.10,NE,52,11.0,18.0,73,0.00,,,0.00,,2013-01-31 21:11:00,
2013-01-31 11:21:00,73.0,64.0,30.10,NE,52,11.0,18.0,73,0.00,,,0.00,,2013-01-31 21:21:00,
2013-01-31 11:31:00,73.0,65.0,30.10,ENE,69,8.0,19.0,75,0.00,,,0.00,,2013-01-31 21:31:00,
2013-01-31 11:42:00,73.0,65.0,30.10,ENE,69,8.0,19.0,75,0.00,,,0.00,,2013-01-31 21:42:00,
2013-01-31 11:52:00,73.0,65.0,30.10,ENE,76,10.0,18.0,75,0.00,,,0.00,,2013-01-31 21:52:00,
2013-01-31 12:02:00,74.0,65.0,30.10,NNE,25,13.0,23.0,73,0.00,,,0.00,,2013-01-31 22:02:00,
2013-01-31 12:11:00,73.0,64.0,30.09,North,355,9.0,19.0,74,0.00,,,0.00,,2013-01-31 22:11:00,
2013-01-31 12:21:00,73.0,64.0,30.09,North,355,9.0,19.0,74,0.00,,,0.00,,2013-01-31 22:21:00,
2013-01-31 12:32:00,73.0,65.0,30.09,NNW,336,10.0,20.0,75,0.00,,,0.00,,2013-01-31 22:32:00,
2013-01-31 12:42:00,73.0,65.0,30.09,NNW,336,10.0,20.0,75,0.00,,,0.00,,2013-01-31 22:42:00,
2013-01-31 12:52:00,75.0,65.0,30.07,ENE,70,4.0,14.0,71,0.00,,,0.00,,2013-01-31 22:52:00,
2013-01-31 13:01:00,74.0,65.0,30.07,East,84,7.0,13.0,74,0.00,,,0.00,,2013-01-31 23:01:00,
2013-01-31 13:11:00,74.0,65.0,30.07,East,84,7.0,13.0,74,0.00,,,0.00,,2013-01-31 23:11:00,
2013-01-31 13:21:00,74.0,65.0,30.06,NNE,19,7.0,20.0,73,0.00,,,0.00,,2013-01-31 23:21:00,
2013-01-31 13:31:00,75.0,65.0,30.06,NNE,32,8.0,17.0,70,0.00,,,0.00,,2013-01-31 23:31:00,
2013-01-31 13:41:00,75.0,65.0,30.06,NNE,32,8.0,17.0,70,0.00,,,0.00,,2013-01-31 23:41:00,
2013-01-31 13:52:00,74.0,65.0,30.05,NNE,21,9.0,18.0,73,0.00,,,0.00,,2013-01-31 23:52:00,
2013-01-31 14:01:00,73.0,65.0,30.05,ENE,72,11.0,22.0,75,0.00,,,0.00,,2013-02-01 00:01:00,
2013-01-31 14:11:00,73.0,65.0,30.05,ENE,72,11.0,22.0,75,0.00,,,0.00,,2013-02-01 00:11:00,
2013-01-31 14:21:00,73.0,64.0,30.04,ENE,76,13.0,21.0,74,0.00,,,0.00,,2013-02-01 00:21:00,
2013-01-31 14:31:00,74.0,64.0,30.04,NE,46,12.0,22.0,72,0.00,,,0.00,,2013-02-01 00:31:00,
2013-01-31 14:42:00,74.0,64.0,30.04,NE,46,12.0,22.0,72,0.00,,,0.00,,2013-02-01 00:42:00,
2013-01-31 14:51:00,74.0,64.0,30.03,East,101,10.0,20.0,70,0.00,,,0.00,,2013-02-01 00:51:00,
2013-01-31 15:01:00,74.0,65.0,30.03,NE,37,11.0,21.0,74,0.00,,,0.00,,2013-02-01 01:01:00,
2013-01-31 15:11:00,73.0,65.0,30.03,ENE,78,9.0,26.0,77,0.00,,,0.00,,2013-02-01 01:11:00,
2013-01-31 15:21:00,73.0,65.0,30.03,ENE,78,9.0,26.0,77,0.00,,,0.00,,2013-02-01 01:21:00,
2013-01-31 15:31:00,73.0,64.0,30.02,SW,221,10.0,19.0,74,0.00,,,0.00,,2013-02-01 01:31:00,
2013-01-31 15:41:00,73.0,64.0,30.02,SW,221,10.0,19.0,74,0.00,,,0.00,,2013-02-01 01:41:00,
2013-01-31 15:52:00,73.0,65.0,30.04,North,360,17.0,28.0,76,0.00,,,0.00,,2013-02-01 01:52:00,
2013-01-31 16:01:00,72.0,64.0,30.04,East,83,10.0,26.0,76,0.00,,,0.00,,2013-02-01 02:01:00,
2013-01-31 16:11:00,72.0,64.0,30.04,East,83,10.0,26.0,76,0.00,,,0.00,,2013-02-01 02:11:00,
2013-01-31 16:21:00,73.0,65.0,30.03,East,88,12.0,24.0,76,0.00,,,0.00,,2013-02-01 02:21:00,
2013-01-31 16:31:00,72.0,64.0,30.04,North,355,12.0,31.0,77,0.00,,,0.00,,2013-02-01 02:31:00,
2013-01-31 16:41:00,72.0,64.0,30.04,North,355,12.0,31.0,77,0.00,,,0.00,,2013-02-01 02:41:00,
2013-01-31 16:52:00,72.0,64.0,30.04,ENE,67,9.0,24.0,77,0.00,,,0.00,,2013-02-01 02:52:00,
2013-01-31 17:01:00,73.0,65.0,30.05,NNE,22,10.0,22.0,77,0.00,,,0.00,,2013-02-01 03:01:00,
2013-01-31 17:11:00,73.0,65.0,30.05,NNE,22,10.0,22.0,77,0.00,,,0.00,,2013-02-01 03:11:00,
2013-01-31 17:21:00,72.0,65.0,30.05,East,84,10.0,24.0,79,0.00,,,0.00,,2013-02-01 03:21:00,
2013-01-31 17:32:00,71.0,64.0,30.05,NE,50,10.0,17.0,78,0.00,,,0.00,,2013-02-01 03:32:00,
2013-01-31 17:41:00,71.0,64.0,30.05,NE,50,10.0,17.0,78,0.00,,,0.00,,2013-02-01 03:41:00,
2013-01-31 17:52:00,71.0,64.0,30.05,ESE,103,9.0,19.0,78,0.00,,,0.00,,2013-02-01 03:52:00,
2013-01-31 18:01:00,71.0,64.0,30.06,NNE,15,12.0,23.0,79,0.00,,,0.00,,2013-02-01 04:01:00,
2013-01-31 18:11:00,71.0,64.0,30.06,ENE,73,14.0,23.0,79,0.00,,,0.00,,2013-02-01 04:11:00,
2013-01-31 18:21:00,71.0,64.0,30.06,ENE,73,14.0,23.0,79,0.00,,,0.00,,2013-02-01 04:21:00,
2013-01-31 18:31:00,70.0,65.0,30.06,East,94,9.0,23.0,84,0.00,,,0.00,,2013-02-01 04:31:00,
2013-01-31 18:41:00,70.0,65.0,30.06,East,94,9.0,23.0,84,0.00,,,0.00,,2013-02-01 04:41:00,
2013-01-31 18:52:00,69.0,64.0,30.06,ESE,103,5.0,16.0,85,0.00,,,0.00,,2013-02-01 04:52:00,
2013-01-31 19:02:00,69.0,64.0,30.06,North,355,8.0,18.0,84,0.00,,,0.00,,2013-02-01 05:02:00,
2013-01-31 19:11:00,69.0,64.0,30.06,North,355,8.0,18.0,84,0.00,,,0.00,,2013-02-01 05:11:00,
2013-01-31 19:22:00,69.0,64.0,30.06,NW,309,11.0,19.0,84,0.00,,,0.00,,2013-02-01 05:22:00,
2013-01-31 19:31:00,69.0,64.0,30.07,ENE,77,11.0,23.0,84,0.00,,,0.00,,2013-02-01 05:31:00,
2013-01-31 19:41:00,69.0,64.0,30.07,ENE,77,11.0,23.0,84,0.00,,,0.00,,2013-02-01 05:41:00,
2013-01-31 19:52:00,69.0,63.0,30.08,ENE,76,8.0,22.0,82,0.00,,,0.00,,2013-02-01 05:52:00,
2013-01-31 20:01:00,69.0,64.0,30.08,NNE,15,10.0,19.0,83,0.00,,,0.00,,2013-02-01 06:01:00,
2013-01-31 20:11:00,69.0,64.0,30.08,NNE,15,10.0,19.0,83,0.00,,,0.00,,2013-02-01 06:11:00,
2013-01-31 20:21:00,69.0,64.0,30.07,East,92,10.0,31.0,83,0.00,,,0.00,,2013-02-01 06:21:00,
2013-01-31 20:31:00,69.0,63.0,30.08,East,89,9.0,26.0,82,0.00,,,0.00,,2013-02-01 06:31:00,
2013-01-31 20:41:00,69.0,63.0,30.08,East,89,9.0,26.0,82,0.00,,,0.00,,2013-02-01 06:41:00,
2013-01-31 20:52:00,69.0,64.0,30.09,NE,44,11.0,22.0,83,0.00,,,0.00,,2013-02-01 06:52:00,
2013-01-31 21:01:00,69.0,63.0,30.09,NE,42,12.0,23.0,81,0.00,,,0.00,,2013-02-01 07:01:00,
2013-01-31 21:11:00,69.0,63.0,30.10,ENE,59,10.0,21.0,81,0.00,,,0.00,,2013-02-01 07:11:00,
2013-01-31 21:21:00,69.0,63.0,30.10,ENE,59,10.0,21.0,81,0.00,,,0.00,,2013-02-01 07:21:00,
2013-01-31 21:31:00,69.0,63.0,30.10,East,92,13.0,27.0,82,0.00,,,0.00,,2013-02-01 07:31:00,
2013-01-31 21:41:00,69.0,63.0,30.10,East,92,13.0,27.0,82,0.00,,,0.00,,2013-02-01 07:41:00,
2013-01-31 21:52:00,69.0,63.0,30.11,NE,40,11.0,21.0,81,0.00,,,0.00,,2013-02-01 07:52:00,
2013-01-31 22:01:00,69.0,63.0,30.11,ENE,57,9.0,21.0,80,0.00,,,0.00,,2013-02-01 08:01:00,
2013-01-31 22:11:00,69.0,63.0,30.11,ENE,57,9.0,21.0,80,0.00,,,0.00,,2013-02-01 08:11:00,
2013-01-31 22:21:00,69.0,62.0,30.11,ENE,77,9.0,17.0,79,0.00,,,0.00,,2013-02-01 08:21:00,
2013-01-31 22:31:00,69.0,62.0,30.11,ENE,77,9.0,17.0,79,0.00,,,0.00,,2013-02-01 08:31:00,
2013-01-31 22:41:00,69.0,62.0,30.11,ENE,77,9.0,17.0,79,0.00,,,0.00,,2013-02-01 08:41:00,
2013-01-31 22:52:00,69.0,62.0,30.11,ENE,77,9.0,17.0,79,0.00,,,0.00,,2013-02-01 08:52:00,